LFRQLFRS

Guest
Details From LFRQ - Quimper Pluguffan
To LFRS - Nantes_Atlantique
Flight Number -
Tags None
Created
Modified
Stats Distance 122 nm / 226 km
Max Altitude 8,000 ft / 2,438 m
Waypoints 5
Social Downloads 0
Likes 0
Share VATSIM

Download

Looking for another format? Having issues loading an existing format? Contact us
Advertisement - Login to hide

Notes

None

Route

LFRQ ROSPO LENSU KORER LFRS

ID Type Via Altitude Latitude Longitude Leg Dist Tot Dist Heading (true) Name
O LFRQ APT - 297 ft / 91 m 47.97278˚ -4.17156˚ - 0 nm - Quimper Pluguffan
ROSPO FIX - 8,000 ft / 2,438 m 47.96153˚ -3.75081˚ 16 nm 16 nm 92° / 92° -
LENSU FIX - 8,000 ft / 2,438 m 47.96500˚ -2.96222˚ 31 nm 48 nm 89° / 90° -
KORER FIX - 8,000 ft / 2,438 m 47.68500˚ -2.50083˚ 25 nm 73 nm 132° / 132° -
O LFRS APT - 89 ft / 27 m 47.15604˚ -1.61119˚ 48 nm 121 nm 131° / 132° Nantes_Atlantique

Altitude Profile

Advertisement - Login to hide

LFRQ

Details ICAO LFRQ (UIP)
Name Quimper Pluguffan
Region France
Timezone Europe/Paris (UTC+1.0)
Stats Elevation 297 ft / 91 m (AMSL)
Location 47.972777° -4.171559°
Runways 2
Magnetic Variation 1.434° W

METAR

LFRQ 181300Z AUTO 03008KT 360V060 9999 SCT018 12/08 Q1029 NOSIG

Decode

TAF

Not found

Departure Runways

ID Width Length Bearing (true) Bearing (mag) Surface Threshold Offset Overrun Length
04 148 ft / 45 m 3,632 ft / 1,107 m 32.51° 33.94° Asphalt 1,148 ft / 350 m 0 ft / 0 m
10 148 ft / 45 m 7,035 ft / 2,144 m 93.49° 94.92° Asphalt 344 ft / 105 m 197 ft / 60 m
22 148 ft / 45 m 3,632 ft / 1,107 m 212.52° 213.95° Asphalt 0 ft / 0 m 0 ft / 0 m
28 148 ft / 45 m 7,035 ft / 2,144 m 273.51° 274.94° Asphalt 0 ft / 0 m 0 ft / 0 m

LFRS

Details ICAO LFRS (NTE)
Name Nantes_Atlantique
Region France
Timezone Europe/Paris (UTC+1.0)
Stats Elevation 89 ft / 27 m (AMSL)
Location 47.156040° -1.611186°
Runways 2
Magnetic Variation 0.509° W

METAR

LFRS 181300Z AUTO 02009KT 350V060 9999 FEW026 BKN034 12/08 Q1027 NOSIG

Decode

TAF

TAF LFRS 181100Z 1812/1918 36008KT 9999 SCT015 SCT030 BECMG 1903/1906 08004KT 3000 BR BKN003 PROB30 TEMPO 1906/1909 0500 FG OVC001 BECMG 1909/1912 7000 NSW BKN005

Decode

Destination Runways

ID Width Length Bearing (true) Bearing (mag) Surface Threshold Offset Overrun Length
03 148 ft / 45 m 9,526 ft / 2,903 m 27.35° 27.86° Asphalt 0 ft / 0 m 0 ft / 0 m
13 100 ft / 30 m 1,999 ft / 609 m 125.55° 126.06° Concrete 0 ft / 0 m 0 ft / 0 m
21 148 ft / 45 m 9,526 ft / 2,903 m 207.37° 207.88° Asphalt 689 ft / 210 m 0 ft / 0 m
31 100 ft / 30 m 1,999 ft / 609 m 305.56° 306.07° Concrete 0 ft / 0 m 0 ft / 0 m

Approach Navaids

Runway Type Ident Frequency Range Bearing (true) Bearing (mag) Slope Elevation
03 Localiser NT 109.90 MHz 27 nm / 50 km 27.42° 27.93° - 89 ft / 27 m (AMSL)
03 Glidescope NT 109.90 MHz 27 nm / 50 km 27.42° 27.93° 3.00° 89 ft / 27 m (AMSL)
03 DME NT 109.90 MHz 27 nm / 50 km - - - 89 ft / 27 m (AMSL)

Popular Alternatives